Kerry Moran — WDD4068 — position and weather

sailwx.info

Track history (hours):
 
Tides and Currents Weather Stations Pressure Air Temp Water Temp Dewpoint Dewpoint Depression Visibility Wind Speed Wind Dir Waves Ship Positions

Kerry Moran

Owner: Moran Towing Corporation, New Canaan, CT. More information available from US FCC via Universal Licensing System and Coast Guard Vessel Documentation Center.

Last reported at 2018-Apr-13 17:23 UTC. Time now 2018-Apr-23 13:31 UTC.
Position N 36°56' W 076°20'.
Warning: this ship's position is 9 days out of date.

; draft 5.6 m.

Type: Tug. MMSI: 367139770.

Date/timePositionNaut miles runAvg speedWind from/ knotsBaromVisibWave heightAir tempDewpointWater temp
2018-Apr-13 17:23N 36°56' W 076°20'2 5.6
2018-Apr-13 16:59N 36°54' W 076°20'3 6.1
2018-Apr-13 16:30N 36°51' W 076°19'1 2.4
2018-Apr-13 16:00N 36°50' W 076°18'0 0.1
2018-Apr-13 15:30N 36°51' W 076°18'0 0.1
2018-Apr-13 15:00N 36°51' W 076°18'1 1.6
2018-Apr-13 14:30N 36°50' W 076°18'  
2018-Apr-10 14:05N 36°55' W 076°20'111.4
2018-Apr-10 13:58N 36°53' W 076°20'0 0.3
2018-Apr-10 13:30N 36°53' W 076°20'0 0.2
2018-Apr-10 12:57N 36°53' W 076°20'  
Track history (hours):
 
Tides and Currents Weather Stations Pressure Air Temp Water Temp Dewpoint Dewpoint Depression Visibility Wind Speed Wind Dir Waves Ship Positions

Kerry Moran

Owner: Moran Towing Corporation, New Canaan, CT. More information available from US FCC via Universal Licensing System and Coast Guard Vessel Documentation Center.

Last reported at 2018-Apr-13 17:23 UTC. Time now 2018-Apr-23 13:31 UTC.
Position N 36°56' W 076°20'.
Warning: this ship's position is 9 days out of date.

; draft 5.6 m.

Type: Tug. MMSI: 367139770.

Date/timePositionNaut miles runAvg speedWind from/ knotsBaromVisibWave heightAir tempDewpointWater temp
2018-Apr-13 17:23N 36°56' W 076°20'2 5.6
2018-Apr-13 16:59N 36°54' W 076°20'3 6.1
2018-Apr-13 16:30N 36°51' W 076°19'1 2.4
2018-Apr-13 16:00N 36°50' W 076°18'0 0.1
2018-Apr-13 15:30N 36°51' W 076°18'0 0.1
2018-Apr-13 15:00N 36°51' W 076°18'1 1.6
2018-Apr-13 14:30N 36°50' W 076°18'  
2018-Apr-10 14:05N 36°55' W 076°20'111.4
2018-Apr-10 13:58N 36°53' W 076°20'0 0.3
2018-Apr-10 13:30N 36°53' W 076°20'0 0.2
2018-Apr-10 12:57N 36°53' W 076°20'  

Dump ship's entire track history